createdAt,value
2018-11-21T00:06:33.927Z,20.23
2018-11-21T01:00:13.528Z,18.42
2018-11-21T01:02:54.824Z,20.20
2018-11-21T01:05:35.429Z,20.57
2018-11-21T01:08:15.977Z,22.52
2018-11-21T01:10:54.554Z,21.20
2018-11-21T01:25:30.691Z,20.35
2018-11-21T01:43:07.483Z,20.72
2018-11-21T03:06:37.277Z,22.02
2018-11-21T03:27:25.275Z,24.45
2018-11-21T03:56:55.636Z,22.27
2018-11-21T04:23:39.602Z,23.42
2018-11-21T04:41:28.739Z,22.52
2018-11-21T04:44:09.781Z,22.35
2018-11-21T04:49:40.145Z,22.15
2018-11-21T04:52:08.777Z,21.30
2018-11-21T04:54:37.298Z,21.57
2018-11-21T04:57:05.918Z,23.73
2018-11-21T04:59:34.590Z,22.67
2018-11-21T05:02:02.947Z,23.47
2018-11-21T05:04:31.282Z,23.10
2018-11-21T05:06:59.682Z,23.62
2018-11-21T05:09:28.072Z,23.02
2018-11-21T05:11:56.381Z,24.35
2018-11-21T05:14:24.759Z,24.18
2018-11-21T05:16:53.099Z,22.37
2018-11-21T05:19:21.447Z,21.82
2018-11-21T05:21:49.850Z,22.45
2018-11-21T05:24:18.175Z,22.90
2018-11-21T05:26:46.893Z,22.70
2018-11-21T05:29:15.242Z,24.52
2018-11-21T05:31:43.574Z,21.42
2018-11-21T05:34:11.947Z,23.95
2018-11-21T05:36:41.132Z,22.98
2018-11-21T05:39:11.148Z,23.98
2018-11-21T05:41:39.529Z,23.10
2018-11-21T05:44:08.027Z,23.85
2018-11-21T05:46:36.662Z,22.42
2018-11-21T05:49:05.972Z,22.50
2018-11-21T05:51:34.754Z,22.25
2018-11-21T05:54:03.126Z,23.47
2018-11-21T05:56:31.521Z,21.80
2018-11-21T05:58:59.887Z,21.57
2018-11-21T06:01:28.311Z,22.77
2018-11-21T06:03:56.890Z,23.60
2018-11-21T06:06:25.596Z,23.07
2018-11-21T06:08:53.982Z,22.30
2018-11-21T06:11:22.378Z,23.00
2018-11-21T06:13:50.986Z,21.42
2018-11-21T06:16:19.359Z,21.35
2018-11-21T06:18:47.991Z,21.75
2018-11-21T06:21:16.630Z,23.07
2018-11-21T06:23:44.993Z,20.95
2018-11-21T06:26:13.304Z,22.67
2018-11-21T06:28:42.008Z,22.75
2018-11-21T06:31:10.341Z,22.95
2018-11-21T06:33:38.674Z,22.67
2018-11-21T06:36:07.070Z,22.93
2018-11-21T06:38:35.686Z,22.60
2018-11-21T06:41:04.212Z,20.00
2018-11-21T06:43:32.588Z,22.35
2018-11-21T06:46:00.934Z,21.82
2018-11-21T06:48:29.368Z,21.65
2018-11-21T06:50:58.089Z,21.42
2018-11-21T06:53:26.441Z,22.32
2018-11-21T06:55:55.097Z,21.68
2018-11-21T06:58:24.125Z,21.15
2018-11-21T07:00:52.453Z,22.00
2018-11-21T07:03:20.910Z,24.00
2018-11-21T07:05:49.290Z,24.50
2018-11-21T07:08:17.662Z,22.52
2018-11-21T07:10:46.098Z,21.73
2018-11-21T07:13:14.496Z,24.07
2018-11-21T07:15:42.858Z,23.27
2018-11-21T07:18:11.289Z,20.45
2018-11-21T07:20:39.664Z,21.93
2018-11-21T07:23:08.013Z,22.20
2018-11-21T07:25:36.350Z,22.32
2018-11-21T07:28:04.719Z,22.52
2018-11-21T07:30:33.491Z,21.15
2018-11-21T07:33:01.879Z,21.87
2018-11-21T07:35:30.382Z,21.35
2018-11-21T07:37:58.817Z,22.80
2018-11-21T07:40:27.120Z,21.40
2018-11-21T07:42:55.487Z,21.87
2018-11-21T07:45:24.242Z,23.73
2018-11-21T07:47:52.627Z,23.95
2018-11-21T07:50:21.657Z,22.42
2018-11-21T07:52:49.981Z,23.70
2018-11-21T07:55:18.722Z,24.32
2018-11-21T07:57:54.958Z,23.35
2018-11-21T08:00:57.088Z,22.00
2018-11-21T08:03:27.030Z,24.18
2018-11-21T08:05:58.076Z,23.05
2018-11-21T08:08:45.718Z,22.50
2018-11-21T08:11:23.993Z,22.17
2018-11-21T08:14:01.512Z,21.77
2018-11-21T08:17:00.318Z,23.50
2018-11-21T08:19:43.181Z,23.85
2018-11-21T08:22:23.359Z,24.75
2018-11-21T08:25:09.351Z,23.25
2018-11-21T08:27:52.233Z,23.42
2018-11-21T08:30:20.648Z,20.72
2018-11-21T08:32:48.956Z,23.70
2018-11-21T08:35:17.781Z,23.52
2018-11-21T08:37:46.223Z,19.95
2018-11-21T08:40:14.619Z,20.70
2018-11-21T08:42:43.025Z,22.13
2018-11-21T08:45:11.432Z,21.25
2018-11-21T08:47:39.772Z,21.70
2018-11-21T08:50:10.466Z,21.45
2018-11-21T08:52:38.833Z,22.67
2018-11-21T08:55:09.060Z,22.07
2018-11-21T08:57:36.671Z,21.77
2018-11-21T09:00:06.364Z,21.48
2018-11-21T09:02:34.740Z,20.75
2018-11-21T09:05:03.162Z,21.90
2018-11-21T09:07:31.760Z,23.62
2018-11-21T09:10:00.452Z,20.43
2018-11-21T09:12:29.582Z,21.82
2018-11-21T09:14:57.839Z,21.73
2018-11-21T09:17:26.195Z,22.42
2018-11-21T09:19:54.559Z,20.70
2018-11-21T09:22:22.943Z,21.27
2018-11-21T09:24:51.716Z,19.85
2018-11-21T09:27:20.613Z,20.23
2018-11-21T09:29:49.222Z,21.93
2018-11-21T09:32:17.611Z,20.72
2018-11-21T09:34:46.131Z,21.42
2018-11-21T09:37:14.817Z,21.12
2018-11-21T09:39:43.190Z,21.55
2018-11-21T09:42:11.536Z,21.37
2018-11-21T09:44:40.517Z,21.80
2018-11-21T09:47:08.902Z,22.10
2018-11-21T09:49:37.303Z,21.40
2018-11-21T09:52:05.732Z,20.55
2018-11-21T09:54:34.097Z,20.15
2018-11-21T09:57:02.721Z,22.62
2018-11-21T09:59:31.136Z,23.67
2018-11-21T10:02:36.576Z,22.60
2018-11-21T10:05:05.367Z,22.20
2018-11-21T10:07:35.431Z,22.90
2018-11-21T10:10:03.778Z,23.22
2018-11-21T10:12:32.165Z,22.35
2018-11-21T10:15:00.503Z,25.50
2018-11-21T10:17:28.882Z,24.65
2018-11-21T10:19:57.262Z,24.18
2018-11-21T10:22:25.627Z,24.02
2018-11-21T10:24:54.360Z,26.85
2018-11-21T10:27:23.070Z,24.55
2018-11-21T10:29:51.413Z,25.30
2018-11-21T10:32:19.829Z,23.65
2018-11-21T10:34:48.156Z,23.00
2018-11-21T10:37:16.839Z,23.98
2018-11-21T10:39:45.182Z,25.52
2018-11-21T10:42:13.524Z,26.40
2018-11-21T10:44:41.985Z,23.18
2018-11-21T10:47:10.657Z,25.20
2018-11-21T10:49:58.311Z,23.67
2018-11-21T10:52:46.014Z,25.92
2018-11-21T10:55:33.657Z,24.20
2018-11-21T10:58:21.333Z,25.57
2018-11-21T11:01:28.287Z,23.75
2018-11-21T11:07:51.896Z,24.40
2018-11-21T11:10:58.937Z,24.30
2018-11-21T11:14:06.006Z,23.40
2018-11-21T11:17:12.981Z,24.57
2018-11-21T11:20:20.101Z,26.02
2018-11-21T11:23:27.079Z,24.63
2018-11-21T11:26:25.723Z,26.02
2018-11-21T11:29:32.904Z,23.62
2018-11-21T11:32:39.881Z,26.12
2018-11-21T11:35:46.914Z,23.55
2018-11-21T11:38:53.905Z,25.23
2018-11-21T11:42:00.862Z,25.92
2018-11-21T11:45:07.998Z,24.75
2018-11-21T11:48:14.969Z,24.65
2018-11-21T11:51:21.948Z,24.50
2018-11-21T11:54:28.963Z,25.90
2018-11-21T11:57:35.930Z,24.92
2018-11-21T12:00:43.014Z,25.23
2018-11-21T12:03:50.014Z,23.85
2018-11-21T12:06:57.131Z,24.52
2018-11-21T12:10:04.451Z,25.45
2018-11-21T12:13:11.791Z,23.80
2018-11-21T12:16:18.780Z,25.02
2018-11-21T12:19:25.773Z,25.30
2018-11-21T12:22:32.846Z,22.40
2018-11-21T12:25:39.831Z,25.48
2018-11-21T12:28:36.501Z,25.23
2018-11-21T12:31:43.546Z,24.25
2018-11-21T12:34:50.545Z,24.95
2018-11-21T12:37:57.498Z,26.12
2018-11-21T12:41:04.561Z,24.65
2018-11-21T12:44:11.569Z,22.70
2018-11-21T12:47:18.591Z,27.35
2018-11-21T12:50:25.540Z,25.90
2018-11-21T12:53:32.631Z,25.40
2018-11-21T12:56:39.608Z,23.27
2018-11-21T12:59:37.968Z,22.85
2018-11-21T13:05:46.718Z,23.85
2018-11-21T13:08:53.698Z,22.95
2018-11-21T13:11:49.146Z,22.27
2018-11-21T13:14:56.129Z,22.02
2018-11-21T13:18:03.133Z,23.80
2018-11-21T13:21:10.085Z,22.85
2018-11-21T13:24:17.075Z,23.22
2018-11-21T13:27:24.044Z,21.48
2018-11-21T13:30:31.103Z,22.17
2018-11-21T13:33:24.492Z,23.62
2018-11-21T13:36:31.588Z,23.90
2018-11-21T13:39:38.609Z,20.05
2018-11-21T13:42:45.635Z,20.30
2018-11-21T13:45:52.616Z,22.20
2018-11-21T13:48:59.699Z,21.50
2018-11-21T13:52:06.796Z,20.17
2018-11-21T13:55:13.884Z,22.50
2018-11-21T13:58:01.591Z,22.07
2018-11-21T14:00:49.284Z,20.60
2018-11-21T14:03:37.187Z,23.30
2018-11-21T14:06:25.027Z,22.62
2018-11-21T14:09:18.378Z,21.30
2018-11-21T14:12:06.048Z,21.90
2018-11-21T14:14:53.689Z,22.30
2018-11-21T14:17:41.358Z,23.00
2018-11-21T14:20:28.991Z,21.93
2018-11-21T14:23:17.245Z,23.32
2018-11-21T14:26:04.915Z,22.02
2018-11-21T14:28:52.924Z,23.27
2018-11-21T14:31:40.738Z,23.15
2018-11-21T14:34:28.422Z,22.87
2018-11-21T14:37:16.095Z,21.75
2018-11-21T14:40:03.787Z,23.90
2018-11-21T14:42:51.441Z,22.37
2018-11-21T14:45:39.352Z,23.00
2018-11-21T14:48:26.998Z,23.35
2018-11-21T14:51:14.708Z,22.70
2018-11-21T14:54:02.390Z,22.45
2018-11-21T14:56:50.057Z,22.48
2018-11-21T14:59:38.068Z,22.75
2018-11-21T15:02:25.758Z,22.42
2018-11-21T15:05:13.814Z,23.02
2018-11-21T15:08:01.581Z,21.65
2018-11-21T15:10:49.256Z,25.02
2018-11-21T15:13:36.940Z,22.20
2018-11-21T15:16:24.845Z,22.73
2018-11-21T15:21:46.855Z,23.27
2018-11-21T15:24:34.532Z,22.67
2018-11-21T15:27:22.184Z,21.40
2018-11-21T15:30:09.858Z,22.05
2018-11-21T15:32:57.785Z,23.35
2018-11-21T15:35:45.494Z,22.77
2018-11-21T15:38:33.153Z,21.90
2018-11-21T15:41:20.827Z,22.90
2018-11-21T15:44:08.494Z,21.75
2018-11-21T15:46:56.317Z,24.07
2018-11-21T15:49:43.981Z,23.07
2018-11-21T15:52:31.736Z,21.93
2018-11-21T15:55:19.675Z,24.20
2018-11-21T15:58:07.370Z,23.02
2018-11-21T16:00:55.046Z,22.65
2018-11-21T16:03:42.726Z,21.65
2018-11-21T16:06:30.574Z,21.30
2018-11-21T16:09:18.259Z,24.67
2018-11-21T16:12:05.911Z,23.32
2018-11-21T16:14:53.589Z,23.92
2018-11-21T16:17:41.285Z,23.20
2018-11-21T16:20:28.972Z,25.43
2018-11-21T16:23:16.584Z,22.95
2018-11-21T16:26:04.278Z,24.67
2018-11-21T16:28:52.176Z,24.30
2018-11-21T16:31:39.884Z,25.12
2018-11-21T16:34:27.686Z,22.40
2018-11-21T16:37:15.347Z,24.18
2018-11-21T16:42:58.061Z,22.00
2018-11-21T16:45:47.714Z,23.57
2018-11-21T16:48:35.379Z,23.00
2018-11-21T16:51:03.737Z,22.52
2018-11-21T16:53:35.171Z,24.10
2018-11-21T16:56:00.788Z,24.12
2018-11-21T16:58:29.169Z,25.60
2018-11-21T17:00:57.572Z,25.68
2018-11-21T17:03:25.981Z,25.00
2018-11-21T17:05:54.611Z,26.23
2018-11-21T17:08:23.189Z,24.87
2018-11-21T17:10:51.867Z,23.60
2018-11-21T17:13:20.746Z,24.27
2018-11-21T17:15:49.176Z,23.77
2018-11-21T17:18:17.548Z,23.02
2018-11-21T17:20:46.601Z,25.02
2018-11-21T17:23:15.424Z,25.70
2018-11-21T17:25:44.135Z,25.30
2018-11-21T17:28:12.580Z,23.83
2018-11-21T17:30:41.041Z,25.02
2018-11-21T17:33:09.385Z,25.50
2018-11-21T17:35:37.779Z,26.85
2018-11-21T17:38:06.113Z,26.02
2018-11-21T17:40:36.380Z,23.45
2018-11-21T17:43:05.146Z,24.25
2018-11-21T17:45:35.579Z,25.65
2018-11-21T17:48:04.159Z,25.05
2018-11-21T17:50:32.585Z,26.62
2018-11-21T17:53:02.367Z,26.35
2018-11-21T17:55:31.547Z,27.32
2018-11-21T17:57:59.963Z,27.50
2018-11-21T18:00:30.194Z,29.18
2018-11-21T18:02:58.524Z,29.30
2018-11-21T18:05:31.732Z,27.75
2018-11-21T18:08:00.059Z,26.25
2018-11-21T18:10:30.527Z,29.12
2018-11-21T18:12:58.907Z,26.33
2018-11-21T18:15:27.275Z,28.35
2018-11-21T18:17:55.624Z,28.55
2018-11-21T18:20:24.028Z,27.27
2018-11-21T18:22:52.936Z,27.13
2018-11-21T18:25:23.295Z,26.45
2018-11-21T18:27:52.007Z,26.27
2018-11-21T18:30:22.006Z,27.07
2018-11-21T18:32:50.740Z,27.48
2018-11-21T18:35:20.468Z,27.22
2018-11-21T18:37:49.091Z,29.20
2018-11-21T18:40:22.172Z,26.90
2018-11-21T18:42:50.586Z,27.13
2018-11-21T18:45:24.547Z,29.25
2018-11-21T18:47:52.948Z,28.05
2018-11-21T18:50:21.843Z,25.75
2018-11-21T18:52:51.446Z,27.15
2018-11-21T18:55:22.084Z,28.27
2018-11-21T18:58:29.422Z,28.32
2018-11-21T19:00:57.795Z,26.82
2018-11-21T19:03:26.299Z,27.40
2018-11-21T19:05:54.782Z,26.80
2018-11-21T19:08:23.175Z,28.90
2018-11-21T19:10:52.183Z,26.70
2018-11-21T19:13:21.220Z,26.85
2018-11-21T19:15:49.595Z,26.00
2018-11-21T19:18:17.952Z,28.40
2018-11-21T19:20:46.571Z,26.20
2018-11-21T19:23:14.930Z,26.75
2018-11-21T19:25:43.311Z,27.20
2018-11-21T19:28:11.727Z,26.80
